createdAt,value
2022-12-27T00:02:40.283Z,20.00
2022-12-27T00:05:42.044Z,20.20
2022-12-27T00:08:43.851Z,20.00
2022-12-27T00:11:45.112Z,20.20
2022-12-27T00:14:46.929Z,20.20
2022-12-27T00:17:48.286Z,20.20
2022-12-27T00:20:49.532Z,20.10
2022-12-27T00:23:51.886Z,20.30
2022-12-27T00:26:53.138Z,20.90
2022-12-27T00:29:56.229Z,20.50
2022-12-27T00:32:57.597Z,20.00
2022-12-27T00:35:59.368Z,20.10
2022-12-27T00:39:00.720Z,20.20
2022-12-27T00:42:01.970Z,20.00
2022-12-27T00:45:04.972Z,20.00
2022-12-27T00:48:06.220Z,20.00
2022-12-27T00:51:10.009Z,20.00
2022-12-27T00:54:13.269Z,19.90
2022-12-27T00:57:14.493Z,20.50
2022-12-27T01:00:16.568Z,20.10
2022-12-27T01:03:18.252Z,19.90
2022-12-27T01:06:21.165Z,20.40
2022-12-27T01:09:22.446Z,20.20
2022-12-27T01:12:23.793Z,19.80
2022-12-27T01:15:25.829Z,19.90
2022-12-27T01:18:27.287Z,20.20
2022-12-27T01:21:29.927Z,20.50
2022-12-27T01:24:31.629Z,20.20
2022-12-27T01:27:32.859Z,20.70
2022-12-27T01:30:34.748Z,20.10
2022-12-27T01:33:36.719Z,20.10
2022-12-27T01:36:37.956Z,20.10
2022-12-27T01:39:39.167Z,19.70
2022-12-27T01:42:53.113Z,20.30
2022-12-27T01:45:55.248Z,20.20
2022-12-27T01:48:56.885Z,20.30
2022-12-27T01:51:58.353Z,19.80
2022-12-27T01:55:02.523Z,20.30
2022-12-27T01:58:06.270Z,20.50
2022-12-27T02:01:10.673Z,19.90
2022-12-27T02:04:14.942Z,19.90
2022-12-27T02:07:16.185Z,20.00
2022-12-27T02:10:17.477Z,19.90
2022-12-27T02:13:19.119Z,19.70
2022-12-27T02:16:20.914Z,19.90
2022-12-27T02:19:27.555Z,20.00
2022-12-27T02:22:55.768Z,19.90
2022-12-27T02:26:11.922Z,19.90
2022-12-27T02:29:18.161Z,20.60
2022-12-27T02:32:23.158Z,20.20
2022-12-27T02:35:26.769Z,20.20
2022-12-27T02:38:30.508Z,20.30
2022-12-27T02:41:43.108Z,19.90
2022-12-27T02:45:00.971Z,20.00
2022-12-27T02:48:13.094Z,19.90
2022-12-27T02:51:39.686Z,20.30
2022-12-27T02:54:50.505Z,20.10
2022-12-27T02:57:55.524Z,19.90
2022-12-27T03:01:23.029Z,20.60
2022-12-27T03:04:33.179Z,20.10
2022-12-27T03:07:36.176Z,20.10
2022-12-27T03:10:53.156Z,19.90
2022-12-27T03:14:11.801Z,19.80
2022-12-27T03:17:18.686Z,20.40
2022-12-27T03:20:33.162Z,20.10
2022-12-27T03:23:50.138Z,20.10
2022-12-27T03:26:52.608Z,19.90
2022-12-27T03:30:09.865Z,19.90
2022-12-27T03:33:12.717Z,20.50
2022-12-27T03:36:32.713Z,20.10
2022-12-27T03:39:37.109Z,20.10
2022-12-27T03:42:53.248Z,20.20
2022-12-27T03:46:10.623Z,19.80
2022-12-27T03:49:19.312Z,19.80
2022-12-27T03:52:22.268Z,19.90
2022-12-27T03:55:28.439Z,19.90
2022-12-27T03:58:33.179Z,19.70
2022-12-27T04:01:34.796Z,20.30
2022-12-27T04:04:36.979Z,20.60
2022-12-27T04:07:38.228Z,20.10
2022-12-27T04:10:53.516Z,19.80
2022-12-27T04:14:09.444Z,20.10
2022-12-27T04:17:23.223Z,19.80
2022-12-27T04:20:39.867Z,20.20
2022-12-27T04:23:53.210Z,20.50
2022-12-27T04:27:09.170Z,20.30
2022-12-27T04:30:23.208Z,19.90
2022-12-27T04:33:39.368Z,19.90
2022-12-27T04:36:41.390Z,20.10
2022-12-27T04:40:04.180Z,20.20
2022-12-27T04:43:20.268Z,19.90
2022-12-27T04:46:33.261Z,20.30
2022-12-27T04:49:49.375Z,20.20
2022-12-27T04:53:03.233Z,19.80
2022-12-27T04:56:05.326Z,19.90
2022-12-27T04:59:21.285Z,20.00
2022-12-27T05:02:22.983Z,19.90
2022-12-27T05:05:24.882Z,20.00
2022-12-27T05:08:41.390Z,20.40
2022-12-27T05:11:53.234Z,19.90
2022-12-27T05:14:54.621Z,20.20
2022-12-27T05:17:56.283Z,20.00
2022-12-27T05:21:00.856Z,20.00
2022-12-27T05:24:13.247Z,20.30
2022-12-27T05:27:15.278Z,20.00
2022-12-27T05:30:16.660Z,20.10
2022-12-27T05:33:17.972Z,19.90
2022-12-27T05:36:19.874Z,20.20
2022-12-27T05:39:21.699Z,20.50
2022-12-27T05:42:22.995Z,19.90
2022-12-27T05:45:24.429Z,19.90
2022-12-27T05:48:25.677Z,20.50
2022-12-27T05:51:26.965Z,19.90
2022-12-27T05:54:28.781Z,20.40
2022-12-27T05:57:30.116Z,20.70
2022-12-27T06:00:31.348Z,20.00
2022-12-27T06:03:32.696Z,19.80
2022-12-27T06:06:34.816Z,19.70
2022-12-27T06:09:36.662Z,20.60
2022-12-27T06:12:37.969Z,20.20
2022-12-27T06:15:39.364Z,20.00
2022-12-27T06:18:41.174Z,20.30
2022-12-27T06:21:42.557Z,20.50
2022-12-27T06:24:44.339Z,20.40
2022-12-27T06:27:45.750Z,19.80
2022-12-27T06:30:47.217Z,20.00
2022-12-27T06:33:49.128Z,20.10
2022-12-27T06:36:50.651Z,19.80
2022-12-27T06:39:52.622Z,20.10
2022-12-27T06:42:53.869Z,20.10
2022-12-27T06:45:55.832Z,20.40
2022-12-27T06:48:57.219Z,20.30
2022-12-27T06:51:59.940Z,19.70
2022-12-27T06:55:02.066Z,20.00
2022-12-27T06:58:03.344Z,20.60
2022-12-27T07:01:07.863Z,20.20
2022-12-27T07:04:09.293Z,20.00
2022-12-27T07:07:15.424Z,20.00
2022-12-27T07:10:18.092Z,20.60
2022-12-27T07:13:19.450Z,20.00
2022-12-27T07:16:21.855Z,20.10
2022-12-27T07:19:23.232Z,20.10
2022-12-27T07:22:24.622Z,20.70
2022-12-27T07:25:26.469Z,19.80
2022-12-27T07:28:27.727Z,20.20
2022-12-27T07:31:30.150Z,20.00
2022-12-27T07:34:31.480Z,20.20
2022-12-27T07:37:32.872Z,20.50
2022-12-27T07:40:36.110Z,20.40
2022-12-27T07:43:37.751Z,19.90
2022-12-27T07:46:40.061Z,20.50
2022-12-27T07:49:41.452Z,20.30
2022-12-27T07:52:42.737Z,20.60
2022-12-27T07:55:46.287Z,20.10
2022-12-27T07:58:48.517Z,20.70
2022-12-27T08:02:03.505Z,20.60
2022-12-27T08:05:05.263Z,20.40
2022-12-27T08:08:06.732Z,20.20
2022-12-27T08:11:08.641Z,20.90
2022-12-27T08:14:09.883Z,20.20
2022-12-27T08:17:14.291Z,20.90
2022-12-27T08:20:15.853Z,20.10
2022-12-27T08:23:17.227Z,20.60
2022-12-27T08:26:19.036Z,20.30
2022-12-27T08:29:20.326Z,20.10
2022-12-27T08:32:21.677Z,20.20
2022-12-27T08:35:51.492Z,20.40
2022-12-27T08:38:44.586Z,20.50
2022-12-27T08:41:46.524Z,20.70
2022-12-27T08:44:47.888Z,20.50
2022-12-27T08:47:49.333Z,20.70
2022-12-27T08:50:50.565Z,20.20
2022-12-27T08:53:51.929Z,20.20
2022-12-27T08:56:53.772Z,20.30
2022-12-27T08:59:55.072Z,20.90
2022-12-27T09:02:56.687Z,20.30
2022-12-27T09:06:06.190Z,20.60
2022-12-27T09:09:07.581Z,20.70
2022-12-27T09:12:09.650Z,20.40
2022-12-27T09:15:11.684Z,20.30
2022-12-27T09:18:13.833Z,21.10
2022-12-27T09:21:16.546Z,20.80
2022-12-27T09:24:17.887Z,21.20
2022-12-27T09:27:19.816Z,20.60
2022-12-27T09:30:21.196Z,21.20
2022-12-27T09:33:22.581Z,20.70
2022-12-27T09:36:25.445Z,20.60
2022-12-27T09:39:26.705Z,20.20
2022-12-27T09:43:06.295Z,20.80
2022-12-27T09:45:59.053Z,20.30
2022-12-27T09:49:00.666Z,21.10
2022-12-27T09:52:04.393Z,20.70
2022-12-27T09:55:10.776Z,21.00
2022-12-27T09:58:22.606Z,20.80
2022-12-27T10:01:28.497Z,21.10
2022-12-27T10:05:00.837Z,20.80
2022-12-27T10:08:01.655Z,21.20
2022-12-27T10:11:32.516Z,20.40
2022-12-27T10:14:43.258Z,21.20
2022-12-27T10:17:53.109Z,20.40
2022-12-27T10:21:00.201Z,21.10
2022-12-27T10:24:12.393Z,21.20
2022-12-27T10:27:14.805Z,20.90
2022-12-27T10:30:19.350Z,21.20
2022-12-27T10:33:22.825Z,21.10
2022-12-27T10:36:25.845Z,20.50
2022-12-27T10:39:27.957Z,20.90
2022-12-27T10:42:33.643Z,20.90
2022-12-27T10:45:38.371Z,21.20
2022-12-27T10:49:18.847Z,20.80
2022-12-27T10:52:06.964Z,20.90
2022-12-27T10:55:28.808Z,20.40
2022-12-27T10:58:35.484Z,21.00
2022-12-27T11:01:37.536Z,20.60
2022-12-27T11:04:53.997Z,21.20
2022-12-27T11:07:55.763Z,20.50
2022-12-27T11:11:11.222Z,21.30
2022-12-27T11:14:16.662Z,20.70
2022-12-27T11:17:19.330Z,21.20
2022-12-27T11:20:22.775Z,20.90
2022-12-27T11:23:25.075Z,21.10
2022-12-27T11:26:27.649Z,20.60
2022-12-27T11:29:30.254Z,21.00
2022-12-27T11:32:32.598Z,20.80
2022-12-27T11:35:44.447Z,20.80
2022-12-27T11:38:49.213Z,20.80
2022-12-27T11:41:52.343Z,21.00
2022-12-27T11:44:58.798Z,20.60
2022-12-27T11:48:03.262Z,21.50
2022-12-27T11:51:22.307Z,20.60
2022-12-27T11:54:30.127Z,21.00
2022-12-27T11:57:42.424Z,20.60
2022-12-27T12:00:46.876Z,21.50
2022-12-27T12:03:58.163Z,20.60
2022-12-27T12:07:03.915Z,21.40
2022-12-27T12:10:15.564Z,20.60
2022-12-27T12:13:28.020Z,21.20
2022-12-27T12:16:44.155Z,20.90
2022-12-27T12:20:01.551Z,20.80
2022-12-27T12:23:06.433Z,21.20
2022-12-27T12:26:12.118Z,21.20
2022-12-27T12:29:25.044Z,21.00
2022-12-27T12:32:31.178Z,22.00
2022-12-27T12:35:44.091Z,20.90
2022-12-27T12:38:49.924Z,21.10
2022-12-27T12:42:04.679Z,20.90
2022-12-27T12:45:16.052Z,21.70
2022-12-27T12:48:32.339Z,21.10
2022-12-27T12:51:39.147Z,21.30
2022-12-27T12:54:54.093Z,21.20
2022-12-27T12:58:05.016Z,21.70
2022-12-27T13:01:21.919Z,21.20
2022-12-27T13:04:30.391Z,21.80
2022-12-27T13:07:40.545Z,21.10
2022-12-27T13:10:46.990Z,21.70
2022-12-27T13:13:55.025Z,21.00
2022-12-27T13:17:01.312Z,21.40
2022-12-27T13:20:07.249Z,21.10
2022-12-27T13:23:12.699Z,21.40
2022-12-27T13:26:18.664Z,21.20
2022-12-27T13:29:29.140Z,21.60
2022-12-27T13:32:38.565Z,21.10
2022-12-27T13:35:47.057Z,21.20
2022-12-27T13:38:53.360Z,21.40
2022-12-27T13:42:01.317Z,21.50
2022-12-27T13:45:08.313Z,21.00
2022-12-27T13:48:15.521Z,21.80
2022-12-27T13:51:34.473Z,21.30
2022-12-27T13:54:44.067Z,21.50
2022-12-27T13:57:59.006Z,21.40
2022-12-27T14:01:05.551Z,21.50
2022-12-27T14:04:22.006Z,20.90
2022-12-27T14:07:31.305Z,21.60
2022-12-27T14:10:35.828Z,21.40
2022-12-27T14:13:38.235Z,21.70
2022-12-27T14:16:48.674Z,20.90
2022-12-27T14:19:58.204Z,21.00
2022-12-27T14:23:11.183Z,21.40
2022-12-27T14:26:27.323Z,21.60
2022-12-27T14:29:40.097Z,20.90
2022-12-27T14:32:57.266Z,21.80
2022-12-27T14:36:14.742Z,21.30
2022-12-27T14:39:27.666Z,21.90
2022-12-27T14:42:53.071Z,21.10
2022-12-27T14:46:03.898Z,21.50
2022-12-27T14:49:18.955Z,21.50
2022-12-27T14:52:34.148Z,21.70
2022-12-27T14:55:41.372Z,21.10
2022-12-27T14:58:48.415Z,21.90
2022-12-27T15:01:54.822Z,21.10
2022-12-27T15:05:04.345Z,22.20
2022-12-27T15:08:24.895Z,21.60
2022-12-27T15:11:34.219Z,22.00
2022-12-27T15:14:43.170Z,21.30
2022-12-27T15:17:51.349Z,21.60
2022-12-27T15:21:07.599Z,21.50
2022-12-27T15:24:18.986Z,21.80
2022-12-27T15:27:26.288Z,21.20
2022-12-27T15:30:34.750Z,21.80
2022-12-27T15:33:40.597Z,21.20
2022-12-27T15:36:42.767Z,21.90
2022-12-27T15:39:47.870Z,21.60
2022-12-27T15:42:53.749Z,21.70
2022-12-27T15:46:02.100Z,21.10
2022-12-27T15:49:09.942Z,21.50
2022-12-27T15:52:14.897Z,21.20
2022-12-27T15:55:22.199Z,21.30
2022-12-27T15:58:24.155Z,21.40
2022-12-27T16:01:27.434Z,21.80
2022-12-27T16:04:41.939Z,21.50
2022-12-27T16:07:44.714Z,21.90
2022-12-27T16:10:48.206Z,21.30
2022-12-27T16:13:50.359Z,21.80
2022-12-27T16:16:52.844Z,21.10
2022-12-27T16:19:59.974Z,21.80
2022-12-27T16:23:02.379Z,21.40
2022-12-27T16:26:05.206Z,22.00
2022-12-27T16:29:12.187Z,21.20
2022-12-27T16:32:16.142Z,21.90
2022-12-27T16:35:17.811Z,21.30
2022-12-27T16:38:21.010Z,21.50
2022-12-27T16:41:36.053Z,21.30
2022-12-27T16:44:45.991Z,21.50
2022-12-27T16:47:57.162Z,21.20
2022-12-27T16:51:06.100Z,21.80
2022-12-27T16:54:16.056Z,21.00
2022-12-27T16:57:21.814Z,21.70
2022-12-27T17:00:35.738Z,20.90
2022-12-27T17:03:42.347Z,21.60
2022-12-27T17:06:54.109Z,21.20
2022-12-27T17:09:55.511Z,21.50
2022-12-27T17:12:58.882Z,21.00
2022-12-27T17:16:03.592Z,21.70
2022-12-27T17:19:15.767Z,21.20
2022-12-27T17:22:17.609Z,21.20
2022-12-27T17:25:22.109Z,20.80
2022-12-27T17:28:26.215Z,21.70
2022-12-27T17:31:33.095Z,20.80
2022-12-27T17:34:37.907Z,21.00
2022-12-27T17:37:42.348Z,21.10
2022-12-27T17:40:47.434Z,21.20
2022-12-27T17:44:03.774Z,21.40
2022-12-27T17:47:16.101Z,20.90
2022-12-27T17:50:20.269Z,22.00
2022-12-27T17:53:33.746Z,21.20
2022-12-27T17:56:56.463Z,21.20
2022-12-27T17:59:59.089Z,20.90
2022-12-27T18:03:02.065Z,21.30
2022-12-27T18:06:03.915Z,20.80
2022-12-27T18:09:05.339Z,21.50
2022-12-27T18:12:10.179Z,21.20
2022-12-27T18:15:13.565Z,21.50
2022-12-27T18:18:17.109Z,21.10
2022-12-27T18:21:22.752Z,21.30
2022-12-27T18:24:25.126Z,21.20
2022-12-27T18:27:26.440Z,21.60
2022-12-27T18:30:31.428Z,20.50
2022-12-27T18:33:34.064Z,21.00
2022-12-27T18:36:37.327Z,21.10
2022-12-27T18:39:39.775Z,21.20
2022-12-27T18:42:43.945Z,20.90
2022-12-27T18:45:45.823Z,21.40
2022-12-27T18:48:48.158Z,21.10
2022-12-27T18:51:49.535Z,21.40
2022-12-27T18:54:51.392Z,21.00
2022-12-27T18:58:00.281Z,21.10
2022-12-27T19:01:04.585Z,21.00
2022-12-27T19:04:20.917Z,21.30
2022-12-27T19:07:22.209Z,20.60
2022-12-27T19:10:24.801Z,21.30
2022-12-27T19:13:27.454Z,20.70
2022-12-27T19:16:30.570Z,20.70
2022-12-27T19:19:32.286Z,20.60
2022-12-27T19:22:35.450Z,21.00
2022-12-27T19:25:37.466Z,21.00
2022-12-27T19:28:38.902Z,20.90
2022-12-27T19:31:42.134Z,20.80
2022-12-27T19:34:45.479Z,20.80
2022-12-27T19:37:46.770Z,20.90
2022-12-27T19:40:49.122Z,20.70
2022-12-27T19:43:50.711Z,20.90
2022-12-27T19:46:52.527Z,21.40
2022-12-27T19:49:53.764Z,21.10
2022-12-27T19:52:55.018Z,20.50
2022-12-27T19:55:57.255Z,20.90
2022-12-27T19:58:58.557Z,21.30
2022-12-27T20:02:00.695Z,20.50
2022-12-27T20:05:02.101Z,21.00
2022-12-27T20:08:05.491Z,20.60
2022-12-27T20:11:10.201Z,20.60
2022-12-27T20:14:13.744Z,20.60
2022-12-27T20:17:15.735Z,21.10
2022-12-27T20:20:16.980Z,20.90
2022-12-27T20:23:18.819Z,20.80
2022-12-27T20:26:21.221Z,20.60
2022-12-27T20:29:22.504Z,20.80
2022-12-27T20:32:24.542Z,20.90
2022-12-27T20:35:25.857Z,20.60
2022-12-27T20:38:27.368Z,20.70
2022-12-27T20:41:28.780Z,21.50
2022-12-27T20:44:30.245Z,20.60
2022-12-27T20:47:32.095Z,20.90
2022-12-27T20:50:33.351Z,20.40
2022-12-27T20:53:34.606Z,21.30
2022-12-27T20:56:35.966Z,20.60
2022-12-27T20:59:37.184Z,20.70
2022-12-27T21:02:39.487Z,20.60
2022-12-27T21:05:40.929Z,21.30
2022-12-27T21:08:47.725Z,20.40
2022-12-27T21:11:50.418Z,21.00
2022-12-27T21:14:52.127Z,20.90
2022-12-27T21:17:54.020Z,20.60
2022-12-27T21:20:59.767Z,20.90
2022-12-27T21:24:01.599Z,20.70
2022-12-27T21:27:03.023Z,20.60
2022-12-27T21:30:04.728Z,20.90
2022-12-27T21:33:06.769Z,20.80
2022-12-27T21:36:10.265Z,20.80
2022-12-27T21:39:11.712Z,20.80
2022-12-27T21:42:13.673Z,21.20
2022-12-27T21:45:15.176Z,20.70
2022-12-27T21:48:17.174Z,20.40
2022-12-27T21:51:19.122Z,20.60
2022-12-27T21:54:20.545Z,20.80
2022-12-27T21:57:21.882Z,20.70
2022-12-27T22:00:23.294Z,20.90
2022-12-27T22:03:25.404Z,20.50
2022-12-27T22:06:28.139Z,20.80
2022-12-27T22:09:29.569Z,21.00
2022-12-27T22:12:30.809Z,20.80
2022-12-27T22:15:32.373Z,20.80
2022-12-27T22:18:35.003Z,20.80
2022-12-27T22:21:37.126Z,20.80
2022-12-27T22:24:38.389Z,20.90
2022-12-27T22:27:39.746Z,20.40
2022-12-27T22:30:41.109Z,21.20
2022-12-27T22:33:42.965Z,20.50
2022-12-27T22:36:44.233Z,20.70
2022-12-27T22:39:45.516Z,20.90
2022-12-27T22:42:47.295Z,20.90
2022-12-27T22:45:53.663Z,21.20
2022-12-27T22:48:56.605Z,20.50
2022-12-27T22:51:57.970Z,20.40
2022-12-27T22:55:04.442Z,21.00
2022-12-27T22:58:08.109Z,20.50
2022-12-27T23:01:10.373Z,21.20
2022-12-27T23:04:13.142Z,20.80
2022-12-27T23:07:19.120Z,20.40
2022-12-27T23:10:20.406Z,20.80
2022-12-27T23:13:23.192Z,20.30
2022-12-27T23:16:25.171Z,20.60
2022-12-27T23:19:26.997Z,21.20
2022-12-27T23:22:28.220Z,20.90
2022-12-27T23:25:29.452Z,20.40
2022-12-27T23:28:30.879Z,20.60
2022-12-27T23:31:32.479Z,20.40
2022-12-27T23:34:34.363Z,20.70
2022-12-27T23:37:35.622Z,20.60
2022-12-27T23:40:36.956Z,20.80
2022-12-27T23:43:55.709Z,20.50
2022-12-27T23:46:57.626Z,20.50
2022-12-27T23:49:59.518Z,20.40
2022-12-27T23:53:00.767Z,20.90
2022-12-27T23:56:04.702Z,20.40
2022-12-27T23:59:06.460Z,20.70
